sensor_id;sensor_type;location;lat;lon;timestamp;temperature;humidity
15105;DHT22;7653;48.994;9.212;2022-09-09T00:06:55;14.60;73.40
15105;DHT22;7653;48.994;9.212;2022-09-09T00:09:28;14.80;73.80
15105;DHT22;7653;48.994;9.212;2022-09-09T00:15:13;15.00;72.30
15105;DHT22;7653;48.994;9.212;2022-09-09T00:23:08;15.40;67.20
15105;DHT22;7653;48.994;9.212;2022-09-09T00:28:22;15.50;68.30
15105;DHT22;7653;48.994;9.212;2022-09-09T00:30:48;15.40;68.10
15105;DHT22;7653;48.994;9.212;2022-09-09T00:33:22;15.40;68.30
15105;DHT22;7653;48.994;9.212;2022-09-09T00:35:51;15.30;68.10
15105;DHT22;7653;48.994;9.212;2022-09-09T00:43:36;15.40;65.00
15105;DHT22;7653;48.994;9.212;2022-09-09T00:46:10;15.40;67.50
15105;DHT22;7653;48.994;9.212;2022-09-09T01:02:25;15.50;67.70
15105;DHT22;7653;48.994;9.212;2022-09-09T01:04:53;15.50;68.30
15105;DHT22;7653;48.994;9.212;2022-09-09T01:07:20;15.00;70.00
15105;DHT22;7653;48.994;9.212;2022-09-09T01:09:55;14.60;73.80
15105;DHT22;7653;48.994;9.212;2022-09-09T01:12:42;14.50;76.40
15105;DHT22;7653;48.994;9.212;2022-09-09T01:15:24;14.80;77.40
15105;DHT22;7653;48.994;9.212;2022-09-09T01:27:55;15.40;65.00
15105;DHT22;7653;48.994;9.212;2022-09-09T01:30:22;15.50;63.70
15105;DHT22;7653;48.994;9.212;2022-09-09T01:32:52;15.50;63.70
15105;DHT22;7653;48.994;9.212;2022-09-09T01:38:22;15.70;62.70
15105;DHT22;7653;48.994;9.212;2022-09-09T01:40:49;15.60;64.70
15105;DHT22;7653;48.994;9.212;2022-09-09T01:43:21;15.60;65.10
15105;DHT22;7653;48.994;9.212;2022-09-09T01:45:49;15.70;63.30
15105;DHT22;7653;48.994;9.212;2022-09-09T01:48:18;15.70;65.20
15105;DHT22;7653;48.994;9.212;2022-09-09T01:50:44;15.70;66.20
15105;DHT22;7653;48.994;9.212;2022-09-09T01:53:11;15.60;65.20
15105;DHT22;7653;48.994;9.212;2022-09-09T01:55:39;15.60;61.60
15105;DHT22;7653;48.994;9.212;2022-09-09T02:03:41;15.70;60.20
15105;DHT22;7653;48.994;9.212;2022-09-09T02:06:34;15.80;60.10
15105;DHT22;7653;48.994;9.212;2022-09-09T02:09:03;15.80;60.40
15105;DHT22;7653;48.994;9.212;2022-09-09T02:11:30;15.70;62.50
15105;DHT22;7653;48.994;9.212;2022-09-09T02:14:05;15.70;64.60
15105;DHT22;7653;48.994;9.212;2022-09-09T02:21:37;15.60;68.40
15105;DHT22;7653;48.994;9.212;2022-09-09T02:24:06;15.70;68.50
15105;DHT22;7653;48.994;9.212;2022-09-09T02:26:39;15.60;70.20
15105;DHT22;7653;48.994;9.212;2022-09-09T02:29:09;15.60;71.50
15105;DHT22;7653;48.994;9.212;2022-09-09T02:31:38;15.60;68.70
15105;DHT22;7653;48.994;9.212;2022-09-09T02:34:05;15.50;70.70
15105;DHT22;7653;48.994;9.212;2022-09-09T02:36:34;15.50;74.70
15105;DHT22;7653;48.994;9.212;2022-09-09T02:39:01;15.40;74.60
15105;DHT22;7653;48.994;9.212;2022-09-09T02:41:33;15.30;74.50
15105;DHT22;7653;48.994;9.212;2022-09-09T02:44:01;15.40;77.20
15105;DHT22;7653;48.994;9.212;2022-09-09T02:52:06;14.80;78.60
15105;DHT22;7653;48.994;9.212;2022-09-09T02:54:34;14.90;80.30
15105;DHT22;7653;48.994;9.212;2022-09-09T02:59:33;14.90;79.80
15105;DHT22;7653;48.994;9.212;2022-09-09T03:01:59;15.00;77.30
15105;DHT22;7653;48.994;9.212;2022-09-09T03:04:24;14.90;77.10
15105;DHT22;7653;48.994;9.212;2022-09-09T03:06:50;14.90;77.90
15105;DHT22;7653;48.994;9.212;2022-09-09T03:09:16;14.90;79.40
15105;DHT22;7653;48.994;9.212;2022-09-09T03:11:41;15.00;78.80
15105;DHT22;7653;48.994;9.212;2022-09-09T03:14:07;15.00;77.00
15105;DHT22;7653;48.994;9.212;2022-09-09T03:16:33;14.70;75.50
15105;DHT22;7653;48.994;9.212;2022-09-09T03:19:00;14.80;77.60
15105;DHT22;7653;48.994;9.212;2022-09-09T03:21:26;14.80;77.20
15105;DHT22;7653;48.994;9.212;2022-09-09T03:23:51;14.80;78.80
15105;DHT22;7653;48.994;9.212;2022-09-09T03:26:17;14.80;80.30
15105;DHT22;7653;48.994;9.212;2022-09-09T03:28:43;14.70;80.10
15105;DHT22;7653;48.994;9.212;2022-09-09T03:31:10;14.30;81.30
15105;DHT22;7653;48.994;9.212;2022-09-09T03:33:37;14.10;85.60
15105;DHT22;7653;48.994;9.212;2022-09-09T03:36:04;14.20;86.30
15105;DHT22;7653;48.994;9.212;2022-09-09T03:38:30;14.40;85.80
15105;DHT22;7653;48.994;9.212;2022-09-09T03:40:56;14.20;83.80
15105;DHT22;7653;48.994;9.212;2022-09-09T03:43:26;14.10;87.00
15105;DHT22;7653;48.994;9.212;2022-09-09T03:45:52;14.20;87.50
15105;DHT22;7653;48.994;9.212;2022-09-09T03:48:18;14.40;86.60
15105;DHT22;7653;48.994;9.212;2022-09-09T03:50:48;14.50;84.90
15105;DHT22;7653;48.994;9.212;2022-09-09T03:53:15;14.50;83.10
15105;DHT22;7653;48.994;9.212;2022-09-09T03:55:50;14.60;83.20
15105;DHT22;7653;48.994;9.212;2022-09-09T03:58:18;14.70;81.50
15105;DHT22;7653;48.994;9.212;2022-09-09T04:00:56;14.60;81.00
15105;DHT22;7653;48.994;9.212;2022-09-09T04:03:22;14.60;80.50
15105;DHT22;7653;48.994;9.212;2022-09-09T04:05:52;14.60;80.90
15105;DHT22;7653;48.994;9.212;2022-09-09T04:08:19;14.60;80.90
15105;DHT22;7653;48.994;9.212;2022-09-09T04:10:46;14.60;78.60
15105;DHT22;7653;48.994;9.212;2022-09-09T04:13:12;14.70;77.10
15105;DHT22;7653;48.994;9.212;2022-09-09T04:15:39;14.60;75.60
15105;DHT22;7653;48.994;9.212;2022-09-09T04:18:05;14.60;77.70
15105;DHT22;7653;48.994;9.212;2022-09-09T04:20:31;14.40;78.00
15105;DHT22;7653;48.994;9.212;2022-09-09T04:22:58;14.40;79.50
15105;DHT22;7653;48.994;9.212;2022-09-09T04:25:25;14.40;79.10
15105;DHT22;7653;48.994;9.212;2022-09-09T04:27:55;14.50;78.50
15105;DHT22;7653;48.994;9.212;2022-09-09T04:30:21;14.50;79.40
15105;DHT22;7653;48.994;9.212;2022-09-09T04:32:47;14.30;79.00
15105;DHT22;7653;48.994;9.212;2022-09-09T04:35:12;14.40;80.40
15105;DHT22;7653;48.994;9.212;2022-09-09T04:37:38;14.30;80.20
15105;DHT22;7653;48.994;9.212;2022-09-09T04:40:04;14.30;79.60
15105;DHT22;7653;48.994;9.212;2022-09-09T04:42:35;14.30;80.60
15105;DHT22;7653;48.994;9.212;2022-09-09T04:45:02;14.40;82.30
15105;DHT22;7653;48.994;9.212;2022-09-09T04:47:28;14.40;82.40
15105;DHT22;7653;48.994;9.212;2022-09-09T04:49:54;14.30;79.20
15105;DHT22;7653;48.994;9.212;2022-09-09T04:52:20;14.10;81.30
15105;DHT22;7653;48.994;9.212;2022-09-09T04:54:46;14.20;82.80
15105;DHT22;7653;48.994;9.212;2022-09-09T04:57:12;14.30;83.00
15105;DHT22;7653;48.994;9.212;2022-09-09T04:59:38;14.40;83.00
15105;DHT22;7653;48.994;9.212;2022-09-09T05:02:04;14.30;80.70
15105;DHT22;7653;48.994;9.212;2022-09-09T05:04:30;14.40;83.00
15105;DHT22;7653;48.994;9.212;2022-09-09T05:06:56;14.40;82.20
15105;DHT22;7653;48.994;9.212;2022-09-09T05:09:22;14.50;80.80
15105;DHT22;7653;48.994;9.212;2022-09-09T05:11:47;14.50;80.50
15105;DHT22;7653;48.994;9.212;2022-09-09T05:14:14;14.50;81.00
15105;DHT22;7653;48.994;9.212;2022-09-09T05:16:44;14.60;80.30
15105;DHT22;7653;48.994;9.212;2022-09-09T05:19:10;14.60;81.40
15105;DHT22;7653;48.994;9.212;2022-09-09T05:21:37;14.70;83.30
15105;DHT22;7653;48.994;9.212;2022-09-09T05:24:03;14.70;83.30
15105;DHT22;7653;48.994;9.212;2022-09-09T05:26:30;14.70;82.50
15105;DHT22;7653;48.994;9.212;2022-09-09T05:28:56;14.70;83.30
15105;DHT22;7653;48.994;9.212;2022-09-09T05:31:24;14.70;83.30
15105;DHT22;7653;48.994;9.212;2022-09-09T05:33:53;14.70;83.40
15105;DHT22;7653;48.994;9.212;2022-09-09T05:36:21;14.40;83.10
15105;DHT22;7653;48.994;9.212;2022-09-09T05:38:47;14.20;86.10
15105;DHT22;7653;48.994;9.212;2022-09-09T05:41:13;14.30;87.50
15105;DHT22;7653;48.994;9.212;2022-09-09T05:43:44;14.30;87.50
15105;DHT22;7653;48.994;9.212;2022-09-09T05:46:12;14.60;88.20
15105;DHT22;7653;48.994;9.212;2022-09-09T05:48:39;14.80;85.80
15105;DHT22;7653;48.994;9.212;2022-09-09T05:51:07;14.80;84.50
15105;DHT22;7653;48.994;9.212;2022-09-09T05:53:34;14.70;80.40
15105;DHT22;7653;48.994;9.212;2022-09-09T05:56:01;14.60;80.30
15105;DHT22;7653;48.994;9.212;2022-09-09T05:58:35;14.70;83.30
15105;DHT22;7653;48.994;9.212;2022-09-09T06:01:08;14.70;83.30
15105;DHT22;7653;48.994;9.212;2022-09-09T06:03:35;14.70;84.80
15105;DHT22;7653;48.994;9.212;2022-09-09T06:06:03;14.90;83.50
15105;DHT22;7653;48.994;9.212;2022-09-09T06:08:35;15.00;81.90
15105;DHT22;7653;48.994;9.212;2022-09-09T06:11:08;15.30;81.80
15105;DHT22;7653;48.994;9.212;2022-09-09T06:13:34;15.50;80.30
15105;DHT22;7653;48.994;9.212;2022-09-09T06:16:03;15.70;77.90
15105;DHT22;7653;48.994;9.212;2022-09-09T06:18:29;15.80;78.90
15105;DHT22;7653;48.994;9.212;2022-09-09T06:20:59;15.80;78.70
15105;DHT22;7653;48.994;9.212;2022-09-09T06:23:33;15.90;75.10
15105;DHT22;7653;48.994;9.212;2022-09-09T06:28:35;16.10;65.60
15105;DHT22;7653;48.994;9.212;2022-09-09T06:31:04;15.90;69.60
15105;DHT22;7653;48.994;9.212;2022-09-09T06:33:35;16.00;73.50
15105;DHT22;7653;48.994;9.212;2022-09-09T06:36:02;16.20;71.90
15105;DHT22;7653;48.994;9.212;2022-09-09T06:38:29;16.40;65.80
15105;DHT22;7653;48.994;9.212;2022-09-09T06:40:57;16.60;65.60
15105;DHT22;7653;48.994;9.212;2022-09-09T06:43:27;16.80;59.60
15105;DHT22;7653;48.994;9.212;2022-09-09T06:48:22;17.20;56.70
15105;DHT22;7653;48.994;9.212;2022-09-09T06:50:48;17.20;55.00
15105;DHT22;7653;48.994;9.212;2022-09-09T06:53:18;17.10;55.80
15105;DHT22;7653;48.994;9.212;2022-09-09T06:55:50;17.10;56.80
15105;DHT22;7653;48.994;9.212;2022-09-09T06:58:18;17.00;56.30
15105;DHT22;7653;48.994;9.212;2022-09-09T07:00:44;17.10;56.80
15105;DHT22;7653;48.994;9.212;2022-09-09T07:03:10;17.20;54.30
15105;DHT22;7653;48.994;9.212;2022-09-09T07:05:36;17.30;55.00
15105;DHT22;7653;48.994;9.212;2022-09-09T07:08:02;17.30;57.00
15105;DHT22;7653;48.994;9.212;2022-09-09T07:10:28;17.40;53.90
15105;DHT22;7653;48.994;9.212;2022-09-09T07:12:53;17.40;53.10
15105;DHT22;7653;48.994;9.212;2022-09-09T07:15:20;17.40;54.30
15105;DHT22;7653;48.994;9.212;2022-09-09T07:17:46;17.60;52.40
15105;DHT22;7653;48.994;9.212;2022-09-09T07:20:14;17.80;52.60
15105;DHT22;7653;48.994;9.212;2022-09-09T07:22:40;17.90;52.70
15105;DHT22;7653;48.994;9.212;2022-09-09T07:25:07;18.00;48.60
15105;DHT22;7653;48.994;9.212;2022-09-09T07:27:33;18.00;48.40
15105;DHT22;7653;48.994;9.212;2022-09-09T07:29:58;18.10;52.00
15105;DHT22;7653;48.994;9.212;2022-09-09T07:32:24;18.00;52.70
15105;DHT22;7653;48.994;9.212;2022-09-09T07:34:51;18.10;51.00
15105;DHT22;7653;48.994;9.212;2022-09-09T07:37:17;18.30;50.20
15105;DHT22;7653;48.994;9.212;2022-09-09T07:39:43;18.30;51.20
15105;DHT22;7653;48.994;9.212;2022-09-09T07:42:08;18.40;50.70
15105;DHT22;7653;48.994;9.212;2022-09-09T07:44:36;18.80;48.00
15105;DHT22;7653;48.994;9.212;2022-09-09T07:47:05;19.00;46.50
15105;DHT22;7653;48.994;9.212;2022-09-09T07:49:30;19.10;46.10
15105;DHT22;7653;48.994;9.212;2022-09-09T07:51:57;19.50;39.10
15105;DHT22;7653;48.994;9.212;2022-09-09T07:54:23;19.50;39.10
15105;DHT22;7653;48.994;9.212;2022-09-09T07:56:52;19.40;39.10
15105;DHT22;7653;48.994;9.212;2022-09-09T07:59:18;19.30;37.80
15105;DHT22;7653;48.994;9.212;2022-09-09T08:01:49;19.30;38.70
15105;DHT22;7653;48.994;9.212;2022-09-09T08:04:17;19.30;35.50
15105;DHT22;7653;48.994;9.212;2022-09-09T08:06:48;19.50;34.00
15105;DHT22;7653;48.994;9.212;2022-09-09T08:09:15;19.40;33.50
15105;DHT22;7653;48.994;9.212;2022-09-09T08:11:41;19.60;33.20
15105;DHT22;7653;48.994;9.212;2022-09-09T08:14:08;19.60;32.30
15105;DHT22;7653;48.994;9.212;2022-09-09T08:16:37;19.70;32.50
15105;DHT22;7653;48.994;9.212;2022-09-09T08:19:04;19.60;32.50
15105;DHT22;7653;48.994;9.212;2022-09-09T08:21:30;19.70;33.30
15105;DHT22;7653;48.994;9.212;2022-09-09T08:23:59;19.90;31.10
15105;DHT22;7653;48.994;9.212;2022-09-09T08:26:28;20.00;31.30
15105;DHT22;7653;48.994;9.212;2022-09-09T08:28:56;20.10;30.00
15105;DHT22;7653;48.994;9.212;2022-09-09T08:31:30;20.00;29.40
15105;DHT22;7653;48.994;9.212;2022-09-09T08:33:58;19.90;29.40
15105;DHT22;7653;48.994;9.212;2022-09-09T08:36:30;20.00;29.50
15105;DHT22;7653;48.994;9.212;2022-09-09T08:38:57;20.10;29.60
15105;DHT22;7653;48.994;9.212;2022-09-09T08:55:27;20.30;27.70
15105;DHT22;7653;48.994;9.212;2022-09-09T08:57:57;20.30;28.40
15105;DHT22;7653;48.994;9.212;2022-09-09T09:12:21;20.60;25.80
15105;DHT22;7653;48.994;9.212;2022-09-09T09:15:23;20.70;25.90
15105;DHT22;7653;48.994;9.212;2022-09-09T09:18:03;21.10;26.40
15105;DHT22;7653;48.994;9.212;2022-09-09T09:24:04;21.10;24.80
15105;DHT22;7653;48.994;9.212;2022-09-09T09:27:57;20.90;25.60
15105;DHT22;7653;48.994;9.212;2022-09-09T09:36:44;20.70;26.40
15105;DHT22;7653;48.994;9.212;2022-09-09T09:39:38;21.00;23.30
15105;DHT22;7653;48.994;9.212;2022-09-09T09:42:22;21.30;22.10
15105;DHT22;7653;48.994;9.212;2022-09-09T09:44:48;21.60;19.10
15105;DHT22;7653;48.994;9.212;2022-09-09T09:47:19;21.70;17.80
15105;DHT22;7653;48.994;9.212;2022-09-09T09:49:55;21.70;18.10
15105;DHT22;7653;48.994;9.212;2022-09-09T09:52:24;21.70;18.10
15105;DHT22;7653;48.994;9.212;2022-09-09T09:54:50;21.70;17.30
15105;DHT22;7653;48.994;9.212;2022-09-09T09:57:18;21.80;18.60
15105;DHT22;7653;48.994;9.212;2022-09-09T09:59:44;22.00;17.70
15105;DHT22;7653;48.994;9.212;2022-09-09T10:02:17;22.00;18.10
15105;DHT22;7653;48.994;9.212;2022-09-09T10:04:44;22.40;18.60
15105;DHT22;7653;48.994;9.212;2022-09-09T10:07:21;22.70;17.00
15105;DHT22;7653;48.994;9.212;2022-09-09T10:09:56;22.60;16.20
15105;DHT22;7653;48.994;9.212;2022-09-09T10:15:36;22.30;22.00
15105;DHT22;7653;48.994;9.212;2022-09-09T10:37:34;19.70;37.50
15105;DHT22;7653;48.994;9.212;2022-09-09T10:40:31;19.80;36.10
15105;DHT22;7653;48.994;9.212;2022-09-09T10:49:03;20.10;34.50
15105;DHT22;7653;48.994;9.212;2022-09-09T10:56:54;20.10;29.30
15105;DHT22;7653;48.994;9.212;2022-09-09T10:59:26;20.00;31.90
15105;DHT22;7653;48.994;9.212;2022-09-09T11:02:03;20.00;32.70
15105;DHT22;7653;48.994;9.212;2022-09-09T11:04:50;20.20;31.20
15105;DHT22;7653;48.994;9.212;2022-09-09T11:07:41;20.30;32.30
15105;DHT22;7653;48.994;9.212;2022-09-09T11:13:17;20.60;32.30
15105;DHT22;7653;48.994;9.212;2022-09-09T11:15:46;20.70;32.30
15105;DHT22;7653;48.994;9.212;2022-09-09T11:18:19;20.90;30.00
15105;DHT22;7653;48.994;9.212;2022-09-09T11:20:49;20.90;31.30
15105;DHT22;7653;48.994;9.212;2022-09-09T11:23:37;20.90;28.30
15105;DHT22;7653;48.994;9.212;2022-09-09T11:26:13;20.90;26.40
15105;DHT22;7653;48.994;9.212;2022-09-09T11:36:48;20.10;22.00
15105;DHT22;7653;48.994;9.212;2022-09-09T11:42:19;19.90;24.30
15105;DHT22;7653;48.994;9.212;2022-09-09T11:44:45;19.80;24.00
15105;DHT22;7653;48.994;9.212;2022-09-09T11:50:26;19.50;25.00
15105;DHT22;7653;48.994;9.212;2022-09-09T11:55:39;19.30;29.00
15105;DHT22;7653;48.994;9.212;2022-09-09T12:00:40;19.00;28.80
15105;DHT22;7653;48.994;9.212;2022-09-09T12:03:36;19.00;31.20
15105;DHT22;7653;48.994;9.212;2022-09-09T12:06:28;19.10;30.30
15105;DHT22;7653;48.994;9.212;2022-09-09T12:09:13;19.20;28.90
15105;DHT22;7653;48.994;9.212;2022-09-09T12:11:41;19.40;29.00
15105;DHT22;7653;48.994;9.212;2022-09-09T12:14:21;19.60;28.10
15105;DHT22;7653;48.994;9.212;2022-09-09T12:16:48;19.90;27.80
15105;DHT22;7653;48.994;9.212;2022-09-09T12:19:21;19.90;26.90
15105;DHT22;7653;48.994;9.212;2022-09-09T12:24:37;20.40;31.40
15105;DHT22;7653;48.994;9.212;2022-09-09T12:27:25;20.90;26.00
15105;DHT22;7653;48.994;9.212;2022-09-09T12:30:18;21.10;24.30
15105;DHT22;7653;48.994;9.212;2022-09-09T12:32:46;21.40;23.50
15105;DHT22;7653;48.994;9.212;2022-09-09T12:35:21;22.10;22.70
15105;DHT22;7653;48.994;9.212;2022-09-09T12:37:53;21.70;19.20
15105;DHT22;7653;48.994;9.212;2022-09-09T12:40:26;21.50;20.10
15105;DHT22;7653;48.994;9.212;2022-09-09T12:42:54;21.60;20.60
15105;DHT22;7653;48.994;9.212;2022-09-09T12:45:38;21.40;21.20
15105;DHT22;7653;48.994;9.212;2022-09-09T12:48:09;21.60;18.50
15105;DHT22;7653;48.994;9.212;2022-09-09T12:51:04;21.90;18.20
15105;DHT22;7653;48.994;9.212;2022-09-09T12:53:36;22.00;19.40
15105;DHT22;7653;48.994;9.212;2022-09-09T12:56:22;22.60;17.50
15105;DHT22;7653;48.994;9.212;2022-09-09T13:02:32;22.80;14.10
15105;DHT22;7653;48.994;9.212;2022-09-09T13:05:09;22.80;14.60
15105;DHT22;7653;48.994;9.212;2022-09-09T13:07:38;23.10;14.80
15105;DHT22;7653;48.994;9.212;2022-09-09T13:10:04;23.50;14.10
15105;DHT22;7653;48.994;9.212;2022-09-09T13:12:29;23.70;13.90
15105;DHT22;7653;48.994;9.212;2022-09-09T13:14:58;23.80;13.10
15105;DHT22;7653;48.994;9.212;2022-09-09T13:17:27;23.70;13.40
15105;DHT22;7653;48.994;9.212;2022-09-09T13:20:03;23.70;12.80
15105;DHT22;7653;48.994;9.212;2022-09-09T13:22:37;23.50;12.90
15105;DHT22;7653;48.994;9.212;2022-09-09T13:25:16;23.80;12.10
15105;DHT22;7653;48.994;9.212;2022-09-09T13:30:30;23.10;14.10
15105;DHT22;7653;48.994;9.212;2022-09-09T13:33:17;22.90;14.50
15105;DHT22;7653;48.994;9.212;2022-09-09T13:35:50;23.50;12.60
15105;DHT22;7653;48.994;9.212;2022-09-09T13:38:17;24.00;11.80
15105;DHT22;7653;48.994;9.212;2022-09-09T13:40:57;24.00;11.90
15105;DHT22;7653;48.994;9.212;2022-09-09T13:43:25;24.40;11.40
15105;DHT22;7653;48.994;9.212;2022-09-09T13:45:57;24.70;10.40
15105;DHT22;7653;48.994;9.212;2022-09-09T13:48:24;24.60;9.90
15105;DHT22;7653;48.994;9.212;2022-09-09T13:51:01;24.40;8.70
15105;DHT22;7653;48.994;9.212;2022-09-09T13:53:29;24.70;9.30
15105;DHT22;7653;48.994;9.212;2022-09-09T13:55:57;25.40;7.90
15105;DHT22;7653;48.994;9.212;2022-09-09T13:58:25;26.10;6.60
15105;DHT22;7653;48.994;9.212;2022-09-09T14:00:52;26.50;6.30
15105;DHT22;7653;48.994;9.212;2022-09-09T14:03:18;26.20;5.90
15105;DHT22;7653;48.994;9.212;2022-09-09T14:05:44;25.70;7.00
15105;DHT22;7653;48.994;9.212;2022-09-09T14:08:18;25.10;7.30
15105;DHT22;7653;48.994;9.212;2022-09-09T14:10:45;25.60;6.40
15105;DHT22;7653;48.994;9.212;2022-09-09T14:13:11;26.00;6.00
15105;DHT22;7653;48.994;9.212;2022-09-09T14:15:37;25.70;7.70
15105;DHT22;7653;48.994;9.212;2022-09-09T14:18:03;25.40;7.50
15105;DHT22;7653;48.994;9.212;2022-09-09T14:20:29;25.60;7.00
15105;DHT22;7653;48.994;9.212;2022-09-09T14:22:55;25.70;7.60
15105;DHT22;7653;48.994;9.212;2022-09-09T14:25:22;26.20;6.90
15105;DHT22;7653;48.994;9.212;2022-09-09T14:27:48;26.40;6.60
15105;DHT22;7653;48.994;9.212;2022-09-09T14:30:14;26.60;6.30
15105;DHT22;7653;48.994;9.212;2022-09-09T14:32:40;26.60;6.30
15105;DHT22;7653;48.994;9.212;2022-09-09T14:35:05;26.80;5.70
15105;DHT22;7653;48.994;9.212;2022-09-09T14:37:32;26.50;6.50
15105;DHT22;7653;48.994;9.212;2022-09-09T14:39:58;26.10;7.00
15105;DHT22;7653;48.994;9.212;2022-09-09T14:42:23;25.10;7.30
15105;DHT22;7653;48.994;9.212;2022-09-09T14:44:49;25.30;5.40
15105;DHT22;7653;48.994;9.212;2022-09-09T14:47:16;25.10;6.30
15105;DHT22;7653;48.994;9.212;2022-09-09T14:49:44;24.60;7.00
15105;DHT22;7653;48.994;9.212;2022-09-09T14:52:11;24.80;6.60
15105;DHT22;7653;48.994;9.212;2022-09-09T14:54:36;24.70;7.10
15105;DHT22;7653;48.994;9.212;2022-09-09T14:57:02;24.80;7.10
15105;DHT22;7653;48.994;9.212;2022-09-09T14:59:28;24.10;8.20
15105;DHT22;7653;48.994;9.212;2022-09-09T15:01:54;23.80;9.30
15105;DHT22;7653;48.994;9.212;2022-09-09T15:04:19;24.10;10.00
15105;DHT22;7653;48.994;9.212;2022-09-09T15:06:45;23.90;10.10
15105;DHT22;7653;48.994;9.212;2022-09-09T15:09:14;24.00;9.60
15105;DHT22;7653;48.994;9.212;2022-09-09T15:11:40;23.20;11.30
15105;DHT22;7653;48.994;9.212;2022-09-09T15:14:07;23.10;12.60
15105;DHT22;7653;48.994;9.212;2022-09-09T15:16:34;23.00;13.10
15105;DHT22;7653;48.994;9.212;2022-09-09T15:19:01;22.90;13.20
15105;DHT22;7653;48.994;9.212;2022-09-09T15:21:33;22.60;13.60
15105;DHT22;7653;48.994;9.212;2022-09-09T15:23:59;22.60;14.00
15105;DHT22;7653;48.994;9.212;2022-09-09T15:26:26;22.80;11.70
15105;DHT22;7653;48.994;9.212;2022-09-09T15:28:53;22.90;11.70
15105;DHT22;7653;48.994;9.212;2022-09-09T15:31:22;22.80;10.20
15105;DHT22;7653;48.994;9.212;2022-09-09T15:33:56;22.40;11.60
15105;DHT22;7653;48.994;9.212;2022-09-09T15:36:44;22.30;10.90
15105;DHT22;7653;48.994;9.212;2022-09-09T15:39:12;22.20;11.30
15105;DHT22;7653;48.994;9.212;2022-09-09T15:41:41;22.10;11.00
15105;DHT22;7653;48.994;9.212;2022-09-09T15:44:08;22.30;10.90
15105;DHT22;7653;48.994;9.212;2022-09-09T15:46:37;22.40;10.90
15105;DHT22;7653;48.994;9.212;2022-09-09T15:49:11;22.30;11.00
15105;DHT22;7653;48.994;9.212;2022-09-09T15:51:39;22.30;11.10
15105;DHT22;7653;48.994;9.212;2022-09-09T15:54:06;22.40;11.20
15105;DHT22;7653;48.994;9.212;2022-09-09T15:56:32;22.30;11.60
15105;DHT22;7653;48.994;9.212;2022-09-09T15:58:59;22.30;11.70
15105;DHT22;7653;48.994;9.212;2022-09-09T16:01:26;22.20;11.70
15105;DHT22;7653;48.994;9.212;2022-09-09T16:03:52;22.10;12.10
15105;DHT22;7653;48.994;9.212;2022-09-09T16:06:20;22.10;12.40
15105;DHT22;7653;48.994;9.212;2022-09-09T16:08:47;22.30;12.40
15105;DHT22;7653;48.994;9.212;2022-09-09T16:11:21;22.30;12.30
15105;DHT22;7653;48.994;9.212;2022-09-09T16:13:49;21.90;13.40
15105;DHT22;7653;48.994;9.212;2022-09-09T16:16:16;21.90;13.90
15105;DHT22;7653;48.994;9.212;2022-09-09T16:18:48;21.70;13.90
15105;DHT22;7653;48.994;9.212;2022-09-09T16:21:17;21.50;15.00
15105;DHT22;7653;48.994;9.212;2022-09-09T16:23:43;21.60;16.00
15105;DHT22;7653;48.994;9.212;2022-09-09T16:26:14;21.00;23.00
15105;DHT22;7653;48.994;9.212;2022-09-09T16:28:40;20.30;27.00
15105;DHT22;7653;48.994;9.212;2022-09-09T16:31:08;19.40;33.80
15105;DHT22;7653;48.994;9.212;2022-09-09T16:33:35;18.90;41.60
15105;DHT22;7653;48.994;9.212;2022-09-09T16:36:06;18.50;44.30
15105;DHT22;7653;48.994;9.212;2022-09-09T16:38:32;18.30;48.10
15105;DHT22;7653;48.994;9.212;2022-09-09T16:40:59;18.20;44.00
15105;DHT22;7653;48.994;9.212;2022-09-09T16:43:26;18.10;43.00
15105;DHT22;7653;48.994;9.212;2022-09-09T16:45:51;17.70;42.60
15105;DHT22;7653;48.994;9.212;2022-09-09T16:48:17;17.60;47.50
15105;DHT22;7653;48.994;9.212;2022-09-09T16:50:43;17.40;43.60
15105;DHT22;7653;48.994;9.212;2022-09-09T16:53:09;17.40;45.90
15105;DHT22;7653;48.994;9.212;2022-09-09T16:55:38;17.30;41.50
15105;DHT22;7653;48.994;9.212;2022-09-09T16:58:05;17.30;44.70
15105;DHT22;7653;48.994;9.212;2022-09-09T17:00:31;17.30;43.00
15105;DHT22;7653;48.994;9.212;2022-09-09T17:02:56;17.30;43.90
15105;DHT22;7653;48.994;9.212;2022-09-09T17:05:22;17.10;42.10
15105;DHT22;7653;48.994;9.212;2022-09-09T17:07:48;17.00;43.90
15105;DHT22;7653;48.994;9.212;2022-09-09T17:10:14;16.90;45.00
15105;DHT22;7653;48.994;9.212;2022-09-09T17:12:40;17.20;47.40
15105;DHT22;7653;48.994;9.212;2022-09-09T17:15:07;17.50;46.00
15105;DHT22;7653;48.994;9.212;2022-09-09T17:17:32;17.60;39.90
15105;DHT22;7653;48.994;9.212;2022-09-09T17:19:58;17.40;42.00
15105;DHT22;7653;48.994;9.212;2022-09-09T17:22:24;17.20;44.40
15105;DHT22;7653;48.994;9.212;2022-09-09T17:24:51;17.10;48.90
15105;DHT22;7653;48.994;9.212;2022-09-09T17:27:17;17.00;47.00
15105;DHT22;7653;48.994;9.212;2022-09-09T17:29:43;17.00;47.00
15105;DHT22;7653;48.994;9.212;2022-09-09T17:32:08;16.90;51.30
15105;DHT22;7653;48.994;9.212;2022-09-09T17:34:35;16.60;50.40
15105;DHT22;7653;48.994;9.212;2022-09-09T17:37:00;16.50;56.30
15105;DHT22;7653;48.994;9.212;2022-09-09T17:39:26;16.40;56.50
15105;DHT22;7653;48.994;9.212;2022-09-09T17:41:52;16.10;58.30
15105;DHT22;7653;48.994;9.212;2022-09-09T17:44:20;16.20;59.70
15105;DHT22;7653;48.994;9.212;2022-09-09T17:46:45;16.10;60.30
15105;DHT22;7653;48.994;9.212;2022-09-09T17:49:14;16.20;60.80
15105;DHT22;7653;48.994;9.212;2022-09-09T17:51:41;16.30;58.30
15105;DHT22;7653;48.994;9.212;2022-09-09T17:54:16;16.40;58.60
15105;DHT22;7653;48.994;9.212;2022-09-09T17:56:42;16.40;59.80
15105;DHT22;7653;48.994;9.212;2022-09-09T17:59:10;16.50;62.60
15105;DHT22;7653;48.994;9.212;2022-09-09T18:01:39;16.50;66.00
15105;DHT22;7653;48.994;9.212;2022-09-09T18:04:06;16.40;61.90
15105;DHT22;7653;48.994;9.212;2022-09-09T18:06:36;16.40;65.90
15105;DHT22;7653;48.994;9.212;2022-09-09T18:09:08;16.10;69.80
15105;DHT22;7653;48.994;9.212;2022-09-09T18:11:37;16.00;70.50
15105;DHT22;7653;48.994;9.212;2022-09-09T18:14:08;15.90;74.30
15105;DHT22;7653;48.994;9.212;2022-09-09T18:16:36;15.90;75.10
15105;DHT22;7653;48.994;9.212;2022-09-09T18:19:04;15.90;76.30
15105;DHT22;7653;48.994;9.212;2022-09-09T18:21:31;15.90;75.10
15105;DHT22;7653;48.994;9.212;2022-09-09T18:24:04;15.90;76.30
15105;DHT22;7653;48.994;9.212;2022-09-09T18:26:30;16.00;75.20
15105;DHT22;7653;48.994;9.212;2022-09-09T18:28:59;16.00;72.70
15105;DHT22;7653;48.994;9.212;2022-09-09T18:31:29;16.10;75.10
15105;DHT22;7653;48.994;9.212;2022-09-09T18:33:57;16.10;74.90
15105;DHT22;7653;48.994;9.212;2022-09-09T18:36:25;16.10;75.90
15105;DHT22;7653;48.994;9.212;2022-09-09T18:38:51;16.10;75.70
15105;DHT22;7653;48.994;9.212;2022-09-09T18:41:29;16.10;77.90
15105;DHT22;7653;48.994;9.212;2022-09-09T18:43:57;16.10;77.80
15105;DHT22;7653;48.994;9.212;2022-09-09T18:46:26;16.10;75.90
15105;DHT22;7653;48.994;9.212;2022-09-09T18:48:52;16.10;75.30
15105;DHT22;7653;48.994;9.212;2022-09-09T18:51:22;16.20;75.40
15105;DHT22;7653;48.994;9.212;2022-09-09T18:54:10;16.10;74.90
15105;DHT22;7653;48.994;9.212;2022-09-09T18:56:38;16.00;74.00